createdAt,value
2023-03-16T00:00:17.631Z,93.51
2023-03-16T00:02:44.347Z,93.48
2023-03-16T00:05:13.109Z,94.69
2023-03-16T00:07:41.930Z,94.76
2023-03-16T00:10:12.412Z,94.20
2023-03-16T00:12:39.904Z,95.33
2023-03-16T00:15:07.293Z,95.59
2023-03-16T00:17:34.742Z,94.23
2023-03-16T00:20:06.534Z,95.51
2023-03-16T00:22:34.141Z,95.12
2023-03-16T00:25:00.918Z,95.23
2023-03-16T00:27:27.870Z,95.06
2023-03-16T00:29:56.169Z,94.75
2023-03-16T00:32:32.026Z,94.23
2023-03-16T00:34:59.597Z,94.20
2023-03-16T00:37:26.979Z,94.16
2023-03-16T00:39:56.300Z,94.25
2023-03-16T00:42:27.735Z,95.09
2023-03-16T00:44:57.693Z,94.88
2023-03-16T00:47:27.086Z,94.09
2023-03-16T00:49:54.147Z,94.16
2023-03-16T00:52:22.237Z,94.41
2023-03-16T00:54:49.999Z,94.43
2023-03-16T00:57:19.048Z,94.82
2023-03-16T00:59:46.666Z,95.02
2023-03-16T01:02:14.829Z,94.10
2023-03-16T01:04:42.400Z,94.27
2023-03-16T01:07:12.285Z,93.90
2023-03-16T01:09:40.726Z,93.94
2023-03-16T01:12:10.960Z,94.18
2023-03-16T01:14:38.523Z,94.85
2023-03-16T01:17:08.549Z,95.17
2023-03-16T01:19:37.838Z,95.40
2023-03-16T01:22:06.855Z,95.50
2023-03-16T01:24:34.800Z,94.72
2023-03-16T01:27:01.729Z,94.98
2023-03-16T01:29:29.843Z,94.42
2023-03-16T01:31:56.972Z,94.60
2023-03-16T01:34:24.033Z,95.18
2023-03-16T01:36:51.104Z,94.83
2023-03-16T01:39:18.454Z,95.13
2023-03-16T01:41:46.722Z,95.75
2023-03-16T01:44:17.806Z,95.59
2023-03-16T01:46:47.625Z,95.67
2023-03-16T01:49:20.643Z,96.09
2023-03-16T01:51:53.300Z,97.38
2023-03-16T01:54:31.685Z,97.90
2023-03-16T01:57:11.720Z,97.88
2023-03-16T01:59:48.076Z,98.67
2023-03-16T02:02:19.168Z,98.22
2023-03-16T02:04:53.561Z,96.97
2023-03-16T02:07:24.785Z,97.60
2023-03-16T02:09:56.255Z,97.02
2023-03-16T02:12:22.967Z,97.44
2023-03-16T02:14:51.070Z,97.54
2023-03-16T02:17:21.141Z,97.73
2023-03-16T02:20:13.651Z,97.51
2023-03-16T02:22:48.031Z,96.78
2023-03-16T02:25:19.281Z,97.93
2023-03-16T02:28:02.467Z,97.53
2023-03-16T02:30:30.434Z,97.43
2023-03-16T02:32:57.553Z,97.19
2023-03-16T02:35:24.256Z,96.99
2023-03-16T02:37:52.629Z,97.53
2023-03-16T02:40:22.090Z,97.39
2023-03-16T02:42:56.578Z,97.62
2023-03-16T02:45:27.183Z,97.73
2023-03-16T02:47:55.117Z,96.80
2023-03-16T02:50:21.703Z,96.66
2023-03-16T02:52:48.605Z,96.66
2023-03-16T02:55:15.691Z,96.94
2023-03-16T02:57:42.392Z,97.18
2023-03-16T03:00:14.322Z,97.09
2023-03-16T03:02:41.079Z,97.46
2023-03-16T03:05:07.981Z,96.36
2023-03-16T03:07:34.634Z,96.39
2023-03-16T03:10:05.992Z,95.66
2023-03-16T03:12:33.752Z,95.62
2023-03-16T03:15:00.435Z,95.84
2023-03-16T03:17:30.154Z,95.73
2023-03-16T03:19:58.878Z,95.66
2023-03-16T03:22:26.476Z,95.13
2023-03-16T03:24:53.862Z,95.75
2023-03-16T03:27:22.654Z,96.28
2023-03-16T03:29:49.445Z,96.42
2023-03-16T03:32:16.165Z,96.37
2023-03-16T03:34:42.778Z,95.92
2023-03-16T03:37:09.426Z,96.12
2023-03-16T03:39:36.275Z,95.81
2023-03-16T03:42:03.012Z,96.44
2023-03-16T03:44:29.671Z,96.77
2023-03-16T03:46:56.400Z,96.54
2023-03-16T03:49:23.036Z,96.00
2023-03-16T03:51:49.690Z,96.67
2023-03-16T03:54:16.388Z,97.25
2023-03-16T03:56:43.270Z,97.41
2023-03-16T03:59:09.921Z,97.38
2023-03-16T04:01:36.697Z,97.65
2023-03-16T04:04:03.476Z,97.39
2023-03-16T04:06:30.122Z,97.06
2023-03-16T04:08:56.787Z,97.42
2023-03-16T04:11:23.447Z,96.91
2023-03-16T04:13:51.988Z,96.76
2023-03-16T04:16:18.942Z,96.91
2023-03-16T04:18:46.311Z,96.37
2023-03-16T04:21:17.155Z,96.66
2023-03-16T04:23:44.504Z,97.22
2023-03-16T04:26:11.538Z,97.44
2023-03-16T04:28:38.664Z,97.34
2023-03-16T04:31:07.649Z,97.22
2023-03-16T04:33:36.501Z,96.96
2023-03-16T04:36:04.370Z,96.73
2023-03-16T04:38:33.993Z,96.87
2023-03-16T04:41:02.550Z,96.85
2023-03-16T04:43:29.584Z,97.15
2023-03-16T04:45:56.357Z,97.41
2023-03-16T04:48:23.057Z,97.66
2023-03-16T04:50:50.460Z,98.47
2023-03-16T04:53:17.673Z,98.68
2023-03-16T04:55:46.816Z,98.63
2023-03-16T04:58:14.510Z,98.04
2023-03-16T05:00:41.645Z,98.36
2023-03-16T05:03:10.415Z,98.01
2023-03-16T05:05:38.806Z,97.35
2023-03-16T05:08:06.612Z,97.39
2023-03-16T05:10:34.724Z,97.27
2023-03-16T05:13:01.565Z,96.81
2023-03-16T05:15:28.509Z,97.10
2023-03-16T05:17:57.074Z,98.06
2023-03-16T05:20:24.292Z,97.89
2023-03-16T05:22:51.857Z,98.06
2023-03-16T05:25:20.474Z,97.68
2023-03-16T05:27:50.640Z,97.54
2023-03-16T05:30:18.718Z,97.50
2023-03-16T05:32:46.058Z,97.47
2023-03-16T05:35:13.766Z,96.75
2023-03-16T05:37:42.142Z,96.92
2023-03-16T05:40:14.342Z,97.32
2023-03-16T05:42:41.060Z,97.92
2023-03-16T05:45:08.324Z,97.85
2023-03-16T05:47:38.380Z,98.42
2023-03-16T05:50:06.664Z,98.52
2023-03-16T05:52:33.901Z,98.53
2023-03-16T05:55:00.716Z,98.18
2023-03-16T05:57:27.410Z,98.29
2023-03-16T05:59:54.595Z,98.63
2023-03-16T06:02:21.390Z,98.89
2023-03-16T06:04:47.987Z,98.89
2023-03-16T06:07:14.701Z,99.70
2023-03-16T06:09:41.405Z,100.00
2023-03-16T06:12:08.309Z,100.00
2023-03-16T06:14:35.164Z,100.00
2023-03-16T06:17:01.933Z,100.00
2023-03-16T06:19:28.602Z,100.00
2023-03-16T06:21:55.255Z,100.00
2023-03-16T06:24:21.989Z,100.00
2023-03-16T06:26:48.592Z,100.00
2023-03-16T06:29:15.222Z,100.00
2023-03-16T06:31:41.896Z,100.00
2023-03-16T06:34:08.673Z,100.00
2023-03-16T06:36:35.334Z,100.00
2023-03-16T06:39:01.949Z,100.00
2023-03-16T06:41:28.583Z,100.00
2023-03-16T06:43:55.203Z,100.00
2023-03-16T06:46:21.883Z,100.00
2023-03-16T06:48:48.698Z,100.00
2023-03-16T06:51:16.843Z,100.00
2023-03-16T06:53:43.636Z,100.00
2023-03-16T06:56:10.361Z,100.00
2023-03-16T06:58:37.018Z,100.00
2023-03-16T07:01:04.824Z,100.00
2023-03-16T07:03:31.894Z,100.00
2023-03-16T07:05:58.540Z,100.00
2023-03-16T07:08:25.222Z,100.00
2023-03-16T07:10:52.134Z,100.00
2023-03-16T07:13:18.729Z,100.00
2023-03-16T07:15:45.626Z,100.00
2023-03-16T07:18:12.302Z,100.00
2023-03-16T07:20:39.007Z,100.00
2023-03-16T07:23:05.688Z,100.00
2023-03-16T07:25:32.384Z,100.00
2023-03-16T07:27:59.167Z,100.00
2023-03-16T07:30:25.981Z,99.57
2023-03-16T07:32:53.118Z,98.97
2023-03-16T07:35:20.194Z,99.10
2023-03-16T07:37:46.852Z,98.60
2023-03-16T07:40:14.520Z,99.08
2023-03-16T07:42:41.454Z,98.74
2023-03-16T07:45:08.734Z,97.44
2023-03-16T07:47:35.858Z,96.40
2023-03-16T07:50:02.538Z,96.56
2023-03-16T07:52:29.282Z,95.32
2023-03-16T07:54:55.933Z,95.05
2023-03-16T07:57:22.748Z,93.92
2023-03-16T07:59:49.391Z,94.26
2023-03-16T08:02:18.792Z,93.72
2023-03-16T08:04:45.890Z,92.31
2023-03-16T08:07:14.422Z,91.53
2023-03-16T08:09:41.758Z,90.68
2023-03-16T08:12:09.623Z,90.32
2023-03-16T08:14:37.278Z,89.87
2023-03-16T08:17:05.904Z,88.71
2023-03-16T08:19:33.661Z,88.01
2023-03-16T08:22:02.117Z,87.41
2023-03-16T08:24:31.107Z,86.40
2023-03-16T08:26:58.962Z,83.59
2023-03-16T08:29:26.381Z,82.61
2023-03-16T08:31:56.353Z,83.38
2023-03-16T08:34:27.798Z,81.16
2023-03-16T08:36:55.433Z,78.73
2023-03-16T08:39:22.658Z,78.15
2023-03-16T08:41:49.632Z,78.13
2023-03-16T08:44:17.503Z,77.30
2023-03-16T08:46:44.792Z,75.69
2023-03-16T08:49:13.006Z,75.01
2023-03-16T08:51:39.678Z,74.05
2023-03-16T08:54:07.522Z,74.12
2023-03-16T08:56:34.252Z,74.77
2023-03-16T08:59:00.889Z,74.00
2023-03-16T09:01:27.667Z,72.37
2023-03-16T09:03:55.012Z,72.83
2023-03-16T09:06:22.448Z,73.42
2023-03-16T09:08:49.198Z,73.67
2023-03-16T09:11:18.826Z,70.96
2023-03-16T09:13:47.320Z,70.16
2023-03-16T09:16:15.824Z,69.13
2023-03-16T09:18:43.743Z,66.97
2023-03-16T09:21:13.824Z,69.35
2023-03-16T09:23:42.702Z,69.05
2023-03-16T09:26:12.553Z,67.97
2023-03-16T09:28:42.077Z,67.95
2023-03-16T09:31:15.531Z,67.41
2023-03-16T09:33:42.824Z,68.76
2023-03-16T09:36:13.416Z,69.31
2023-03-16T09:38:41.264Z,66.89
2023-03-16T09:41:22.496Z,67.01
2023-03-16T09:44:00.216Z,65.62
2023-03-16T09:46:28.700Z,65.23
2023-03-16T09:48:59.756Z,65.53
2023-03-16T09:51:36.750Z,65.07
2023-03-16T09:54:13.988Z,65.16
2023-03-16T09:56:43.292Z,60.89
2023-03-16T09:59:13.575Z,60.78
2023-03-16T10:01:53.870Z,61.72
2023-03-16T10:04:32.326Z,60.25
2023-03-16T10:07:18.511Z,58.52
2023-03-16T10:09:57.090Z,59.31
2023-03-16T10:12:30.831Z,60.24
2023-03-16T10:15:15.081Z,57.19
2023-03-16T10:17:51.462Z,54.21
2023-03-16T10:20:20.776Z,55.70
2023-03-16T10:22:52.465Z,56.47
2023-03-16T10:25:23.592Z,55.47
2023-03-16T10:27:50.812Z,55.51
2023-03-16T10:30:28.865Z,57.31
2023-03-16T10:33:00.607Z,58.50
2023-03-16T10:35:57.758Z,58.25
2023-03-16T10:38:33.630Z,57.30
2023-03-16T10:41:00.809Z,56.03
2023-03-16T10:43:29.686Z,54.83
2023-03-16T10:46:02.488Z,52.69
2023-03-16T10:48:34.854Z,53.00
2023-03-16T10:51:07.084Z,55.05
2023-03-16T10:53:36.783Z,55.01
2023-03-16T10:56:13.823Z,53.29
2023-03-16T10:58:43.331Z,55.91
2023-03-16T11:01:18.066Z,54.79
2023-03-16T11:03:51.179Z,53.43
2023-03-16T11:06:30.630Z,50.39
2023-03-16T11:09:14.421Z,51.73
2023-03-16T11:11:49.380Z,48.99
2023-03-16T11:14:21.052Z,49.41
2023-03-16T11:17:02.625Z,51.00
2023-03-16T11:19:33.026Z,51.33
2023-03-16T11:22:10.361Z,46.37
2023-03-16T11:24:49.429Z,50.29
2023-03-16T11:27:24.980Z,49.62
2023-03-16T11:30:14.101Z,45.64
2023-03-16T11:32:45.175Z,43.59
2023-03-16T11:35:17.414Z,47.81
2023-03-16T11:38:14.094Z,48.40
2023-03-16T11:41:02.807Z,44.97
2023-03-16T11:43:59.953Z,42.81
2023-03-16T11:46:27.458Z,42.35
2023-03-16T11:49:10.489Z,43.73
2023-03-16T11:51:54.597Z,43.27
2023-03-16T11:54:42.883Z,43.89
2023-03-16T11:57:42.489Z,46.30
2023-03-16T12:00:40.385Z,45.56
2023-03-16T12:03:24.817Z,44.81
2023-03-16T12:06:22.113Z,44.61
2023-03-16T12:09:12.482Z,44.66
2023-03-16T12:11:47.080Z,45.92
2023-03-16T12:14:22.806Z,46.05
2023-03-16T12:17:02.451Z,44.59
2023-03-16T12:19:45.859Z,41.96
2023-03-16T12:22:21.593Z,41.06
2023-03-16T12:24:48.942Z,44.11
2023-03-16T12:27:24.938Z,43.72
2023-03-16T12:30:15.573Z,44.56
2023-03-16T12:33:00.861Z,43.77
2023-03-16T12:35:42.754Z,44.61
2023-03-16T12:38:32.749Z,43.65
2023-03-16T12:41:00.332Z,42.92
2023-03-16T12:43:49.338Z,44.36
2023-03-16T12:46:47.916Z,44.87
2023-03-16T12:49:15.275Z,44.79
2023-03-16T12:51:44.052Z,45.24
2023-03-16T12:54:21.331Z,44.92
2023-03-16T12:56:50.550Z,44.18
2023-03-16T12:59:21.011Z,44.13
2023-03-16T13:01:52.124Z,43.79
2023-03-16T13:04:30.914Z,45.55
2023-03-16T13:07:16.324Z,44.24
2023-03-16T13:09:49.483Z,43.49
2023-03-16T13:12:36.911Z,43.22
2023-03-16T13:15:25.714Z,40.75
2023-03-16T13:18:05.436Z,43.29
2023-03-16T13:20:34.923Z,43.26
2023-03-16T13:23:24.038Z,42.77
2023-03-16T13:26:01.726Z,42.86
2023-03-16T13:28:31.657Z,43.00
2023-03-16T13:30:58.683Z,44.52
2023-03-16T13:33:28.169Z,43.71
2023-03-16T13:35:57.505Z,42.46
2023-03-16T13:38:28.388Z,41.95
2023-03-16T13:40:58.036Z,41.92
2023-03-16T13:43:28.931Z,44.52
2023-03-16T13:45:55.874Z,43.52
2023-03-16T13:48:22.834Z,42.14
2023-03-16T13:50:57.702Z,42.46
2023-03-16T13:53:29.458Z,42.05
2023-03-16T13:55:59.153Z,42.64
2023-03-16T13:58:34.906Z,40.10
2023-03-16T14:01:03.532Z,39.69
2023-03-16T14:03:36.037Z,41.54
2023-03-16T14:06:04.697Z,39.43
2023-03-16T14:08:32.526Z,39.22
2023-03-16T14:11:01.487Z,39.96
2023-03-16T14:13:28.994Z,39.40
2023-03-16T14:15:58.054Z,40.83
2023-03-16T14:18:37.751Z,39.74
2023-03-16T14:21:09.307Z,39.38
2023-03-16T14:23:41.277Z,39.45
2023-03-16T14:26:13.840Z,38.44
2023-03-16T14:28:41.608Z,39.49
2023-03-16T14:31:12.522Z,40.23
2023-03-16T14:33:42.857Z,39.55
2023-03-16T14:36:14.953Z,39.82
2023-03-16T14:38:44.205Z,38.74
2023-03-16T14:41:11.835Z,37.61
2023-03-16T14:43:45.143Z,39.23
2023-03-16T14:46:15.992Z,39.31
2023-03-16T14:48:42.929Z,39.22
2023-03-16T14:51:14.312Z,38.38
2023-03-16T14:53:41.160Z,38.22
2023-03-16T14:56:13.630Z,38.87
2023-03-16T14:58:41.814Z,39.15
2023-03-16T15:01:15.040Z,39.36
2023-03-16T15:03:43.412Z,39.48
2023-03-16T15:06:10.498Z,39.79
2023-03-16T15:08:44.476Z,39.08
2023-03-16T15:11:11.650Z,39.98
2023-03-16T15:13:56.614Z,40.43
2023-03-16T15:16:23.494Z,38.63
2023-03-16T15:18:51.853Z,38.40
2023-03-16T15:21:25.211Z,38.59
2023-03-16T15:23:52.189Z,39.48
2023-03-16T15:26:26.326Z,38.28
2023-03-16T15:28:54.498Z,38.97
2023-03-16T15:31:21.521Z,39.94
2023-03-16T15:33:48.140Z,39.79
2023-03-16T15:36:18.254Z,38.43
2023-03-16T15:38:48.843Z,39.45
2023-03-16T15:41:16.142Z,39.12
2023-03-16T15:43:45.503Z,39.35
2023-03-16T15:46:12.318Z,39.76
2023-03-16T15:48:39.497Z,40.25
2023-03-16T15:51:14.152Z,39.47
2023-03-16T15:53:46.899Z,40.49
2023-03-16T15:56:17.519Z,40.12
2023-03-16T15:58:46.801Z,40.50
2023-03-16T16:01:23.111Z,42.21
2023-03-16T16:03:53.227Z,41.52
2023-03-16T16:06:20.813Z,42.24
2023-03-16T16:08:47.578Z,40.31
2023-03-16T16:11:22.368Z,41.90
2023-03-16T16:13:49.234Z,41.64
2023-03-16T16:16:18.826Z,39.89
2023-03-16T16:18:47.396Z,40.43
2023-03-16T16:21:23.024Z,41.74
2023-03-16T16:23:51.682Z,41.76
2023-03-16T16:26:55.174Z,41.65
2023-03-16T16:29:26.702Z,43.63
2023-03-16T16:31:53.756Z,42.30
2023-03-16T16:34:24.346Z,41.58
2023-03-16T16:36:54.626Z,42.07
2023-03-16T16:39:21.962Z,42.26
2023-03-16T16:41:51.369Z,40.90
2023-03-16T16:44:23.625Z,39.59
2023-03-16T16:46:52.124Z,42.65
2023-03-16T16:49:23.813Z,40.63
2023-03-16T16:51:52.200Z,41.13
2023-03-16T16:54:22.604Z,39.22
2023-03-16T16:56:52.162Z,40.36
2023-03-16T16:59:21.463Z,41.15
2023-03-16T17:01:51.851Z,39.79
2023-03-16T17:04:23.498Z,39.54
2023-03-16T17:06:52.375Z,39.08
2023-03-16T17:09:19.008Z,40.47
2023-03-16T17:11:45.941Z,39.04
2023-03-16T17:14:18.778Z,40.30
2023-03-16T17:16:48.449Z,41.14
2023-03-16T17:19:24.976Z,39.98
2023-03-16T17:21:52.056Z,40.28
2023-03-16T17:24:18.990Z,40.57
2023-03-16T17:26:48.982Z,40.92
2023-03-16T17:29:21.149Z,41.50
2023-03-16T17:31:49.239Z,40.83
2023-03-16T17:34:18.919Z,42.13
2023-03-16T17:36:46.854Z,41.84
2023-03-16T17:39:23.695Z,41.76
2023-03-16T17:42:07.729Z,41.55
2023-03-16T17:44:38.490Z,41.71
2023-03-16T17:47:14.016Z,44.02
2023-03-16T17:49:41.025Z,43.31
2023-03-16T17:52:15.339Z,43.92
2023-03-16T17:54:42.263Z,43.76
2023-03-16T17:57:17.223Z,45.16
2023-03-16T17:59:46.440Z,46.34
2023-03-16T18:02:43.614Z,44.28
2023-03-16T18:05:18.944Z,45.46
2023-03-16T18:07:46.720Z,45.97
2023-03-16T18:10:20.221Z,46.00
2023-03-16T18:12:49.950Z,47.08
2023-03-16T18:15:18.680Z,46.39
2023-03-16T18:17:46.194Z,44.76
2023-03-16T18:20:23.172Z,46.27
2023-03-16T18:22:50.452Z,46.19
2023-03-16T18:25:30.194Z,46.40
2023-03-16T18:27:57.676Z,46.31
2023-03-16T18:30:26.045Z,45.73
2023-03-16T18:32:53.618Z,46.27
2023-03-16T18:35:21.308Z,46.46
2023-03-16T18:37:48.814Z,44.76
2023-03-16T18:40:18.218Z,45.63
2023-03-16T18:42:45.230Z,46.55
2023-03-16T18:45:13.824Z,44.40
2023-03-16T18:47:43.925Z,45.51
2023-03-16T18:50:19.814Z,44.72
2023-03-16T18:52:46.852Z,45.24
2023-03-16T18:55:17.544Z,44.36
2023-03-16T18:57:46.590Z,45.07
2023-03-16T19:00:16.191Z,44.56
2023-03-16T19:02:44.250Z,42.63
2023-03-16T19:05:23.538Z,44.72
2023-03-16T19:07:52.589Z,43.93
2023-03-16T19:10:28.892Z,43.96
2023-03-16T19:12:56.326Z,45.71
2023-03-16T19:15:24.552Z,44.57
2023-03-16T19:17:52.034Z,45.41
2023-03-16T19:20:24.082Z,44.40
2023-03-16T19:23:00.405Z,44.99
2023-03-16T19:25:32.221Z,45.63
2023-03-16T19:28:00.096Z,45.13
2023-03-16T19:30:29.450Z,44.85
2023-03-16T19:32:57.093Z,43.93
2023-03-16T19:35:36.855Z,45.04
2023-03-16T19:38:11.559Z,44.62
2023-03-16T19:40:38.235Z,45.15
2023-03-16T19:43:05.072Z,47.38
2023-03-16T19:45:33.961Z,47.34
2023-03-16T19:48:01.030Z,46.26
2023-03-16T19:50:28.819Z,47.10
2023-03-16T19:52:58.993Z,46.51
2023-03-16T19:55:31.858Z,47.23
2023-03-16T19:58:06.020Z,46.65
2023-03-16T20:00:33.225Z,48.39
2023-03-16T20:03:00.235Z,46.68
2023-03-16T20:05:30.292Z,47.30
2023-03-16T20:07:58.615Z,47.09
2023-03-16T20:10:29.067Z,46.80
2023-03-16T20:12:58.589Z,45.65
2023-03-16T20:15:29.076Z,45.39
2023-03-16T20:17:55.933Z,45.63
2023-03-16T20:20:26.816Z,46.55
2023-03-16T20:22:56.633Z,47.49
2023-03-16T20:25:26.247Z,47.12
2023-03-16T20:27:56.532Z,47.94
2023-03-16T20:30:23.820Z,48.11
2023-03-16T20:32:51.178Z,47.67
2023-03-16T20:35:21.588Z,47.87
2023-03-16T20:37:52.957Z,47.90
2023-03-16T20:40:20.981Z,47.94
2023-03-16T20:42:48.366Z,47.67
2023-03-16T20:45:26.126Z,48.07
2023-03-16T20:47:53.762Z,48.70
2023-03-16T20:50:30.751Z,48.47
2023-03-16T20:52:57.507Z,48.08
2023-03-16T20:55:27.143Z,48.28
2023-03-16T20:57:55.376Z,49.06
2023-03-16T21:00:26.721Z,49.23
2023-03-16T21:02:54.808Z,48.56
2023-03-16T21:05:22.088Z,48.65
2023-03-16T21:07:48.845Z,49.08
2023-03-16T21:10:19.413Z,49.20
2023-03-16T21:12:50.963Z,48.88
2023-03-16T21:15:24.999Z,49.11
2023-03-16T21:17:56.889Z,48.95
2023-03-16T21:20:25.342Z,49.74
2023-03-16T21:22:52.104Z,49.17
2023-03-16T21:25:23.497Z,49.42
2023-03-16T21:27:52.756Z,49.09
2023-03-16T21:30:33.601Z,49.31
2023-03-16T21:33:02.005Z,49.74
2023-03-16T21:35:33.703Z,50.69
2023-03-16T21:38:07.464Z,50.82
2023-03-16T21:40:34.101Z,50.30
2023-03-16T21:43:01.107Z,51.33
2023-03-16T21:45:28.038Z,50.88
2023-03-16T21:47:55.826Z,51.12
2023-03-16T21:50:32.225Z,51.58
2023-03-16T21:52:58.967Z,52.30
2023-03-16T21:55:29.251Z,52.26
2023-03-16T21:57:57.700Z,52.32
2023-03-16T22:00:27.581Z,53.32
2023-03-16T22:02:56.473Z,53.06
2023-03-16T22:05:39.869Z,51.76
2023-03-16T22:08:14.549Z,52.23
2023-03-16T22:10:42.030Z,52.12
2023-03-16T22:13:09.707Z,51.75
2023-03-16T22:15:36.907Z,52.09
2023-03-16T22:18:09.502Z,51.69
2023-03-16T22:20:36.574Z,52.66
2023-03-16T22:23:04.036Z,52.70
2023-03-16T22:25:31.277Z,53.20
2023-03-16T22:27:58.152Z,52.79
2023-03-16T22:30:27.890Z,53.15
2023-03-16T22:32:58.752Z,53.82
2023-03-16T22:35:40.854Z,52.81
2023-03-16T22:38:12.546Z,52.91
2023-03-16T22:40:41.403Z,52.90
2023-03-16T22:43:14.292Z,54.13
2023-03-16T22:45:41.353Z,54.73
2023-03-16T22:48:18.962Z,54.76
2023-03-16T22:50:46.676Z,55.45
2023-03-16T22:53:20.988Z,55.89
2023-03-16T22:55:49.248Z,54.09
2023-03-16T22:58:35.784Z,56.02
2023-03-16T23:01:17.184Z,56.34
2023-03-16T23:03:45.912Z,55.94
2023-03-16T23:06:18.984Z,56.62
2023-03-16T23:08:46.028Z,56.97
2023-03-16T23:11:18.781Z,57.24
2023-03-16T23:13:46.529Z,56.35
2023-03-16T23:16:28.460Z,56.65
2023-03-16T23:18:55.495Z,55.61
2023-03-16T23:21:24.595Z,56.77
2023-03-16T23:24:02.997Z,57.38
2023-03-16T23:26:30.584Z,57.96
2023-03-16T23:28:57.767Z,56.39
2023-03-16T23:31:27.170Z,58.29
2023-03-16T23:33:54.223Z,57.82
2023-03-16T23:36:24.498Z,57.13
2023-03-16T23:38:51.712Z,56.76
2023-03-16T23:41:22.291Z,57.78
2023-03-16T23:43:50.735Z,58.70
2023-03-16T23:46:19.681Z,58.51
2023-03-16T23:48:48.806Z,59.37
2023-03-16T23:51:34.527Z,58.79
2023-03-16T23:54:01.378Z,58.65
2023-03-16T23:56:28.096Z,59.73
2023-03-16T23:58:54.878Z,58.48
